createdAt,value
2023-12-16T09:01:29.251Z,623.00
2023-12-16T09:02:06.754Z,620.00
2023-12-16T09:03:06.688Z,619.00
2023-12-16T09:04:06.725Z,619.00
2023-12-16T09:05:06.661Z,618.00
2023-12-16T09:06:06.676Z,612.00
2023-12-16T09:07:06.687Z,612.00
2023-12-16T09:08:06.641Z,613.00
2023-12-16T09:09:07.760Z,612.00
2023-12-16T09:10:06.677Z,613.00
2023-12-16T09:11:06.648Z,614.00
2023-12-16T09:12:06.654Z,614.00
2023-12-16T09:13:06.699Z,613.00
2023-12-16T09:14:06.685Z,612.00
2023-12-16T09:15:06.670Z,613.00
2023-12-16T09:16:06.720Z,613.00
2023-12-16T09:17:06.650Z,614.00
2023-12-16T09:18:07.256Z,615.00
2023-12-16T09:19:06.690Z,617.00
2023-12-16T09:20:07.022Z,617.00
2023-12-16T09:21:06.662Z,617.00
2023-12-16T09:22:06.738Z,619.00
2023-12-16T09:23:06.797Z,624.00
2023-12-16T09:24:06.875Z,622.00
2023-12-16T09:25:06.982Z,621.00
2023-12-16T09:26:07.011Z,621.00
2023-12-16T09:27:07.060Z,620.00
2023-12-16T09:28:07.198Z,621.00
2023-12-16T09:29:07.353Z,622.00
2023-12-16T09:30:07.334Z,621.00
2023-12-16T09:31:07.485Z,622.00
2023-12-16T09:32:14.794Z,607.00
2023-12-16T09:33:14.839Z,612.00
2023-12-16T09:34:14.817Z,616.00
2023-12-16T09:35:14.801Z,615.00
2023-12-16T09:36:15.838Z,615.00
2023-12-16T09:37:14.840Z,615.00
2023-12-16T09:38:14.786Z,617.00
2023-12-16T09:39:14.785Z,618.00
2023-12-16T09:40:14.861Z,620.00
2023-12-16T09:41:14.792Z,621.00
2023-12-16T09:42:14.795Z,621.00
2023-12-16T09:43:14.836Z,619.00
2023-12-16T09:44:14.788Z,616.00
2023-12-16T09:45:14.797Z,614.00
2023-12-16T09:46:14.845Z,612.00
2023-12-16T09:47:14.784Z,611.00
2023-12-16T09:48:14.879Z,614.00
2023-12-16T09:49:14.853Z,615.00
2023-12-16T09:50:14.785Z,615.00
2023-12-16T09:51:14.797Z,617.00
2023-12-16T09:52:14.841Z,618.00
2023-12-16T09:53:14.854Z,613.00
2023-12-16T09:54:14.835Z,615.00
2023-12-16T09:55:14.896Z,616.00
2023-12-16T09:56:14.856Z,613.00
2023-12-16T09:57:14.911Z,614.00
2023-12-16T09:58:14.992Z,616.00
2023-12-16T09:59:15.020Z,616.00
2023-12-16T10:00:15.118Z,618.00
2023-12-16T10:01:15.208Z,617.00
2023-12-16T10:02:15.248Z,620.00
2023-12-16T10:03:15.259Z,621.00
2023-12-16T10:04:15.272Z,621.00
2023-12-16T10:05:15.315Z,619.00
2023-12-16T10:06:15.348Z,619.00
2023-12-16T10:07:15.476Z,619.00
2023-12-16T10:08:15.421Z,620.00
2023-12-16T10:09:15.487Z,621.00
2023-12-16T10:10:15.546Z,621.00
2023-12-16T10:11:15.563Z,620.00
2023-12-16T10:12:15.558Z,619.00
2023-12-16T10:13:15.714Z,617.00
2023-12-16T10:14:15.668Z,618.00
2023-12-16T10:15:15.676Z,618.00
2023-12-16T10:16:15.762Z,617.00
2023-12-16T10:17:15.754Z,617.00
2023-12-16T10:18:15.889Z,617.00
2023-12-16T10:19:15.867Z,613.00
2023-12-16T10:20:15.838Z,612.00
2023-12-16T10:21:19.478Z,610.00
2023-12-16T10:22:17.042Z,610.00
2023-12-16T10:23:15.856Z,610.00
2023-12-16T10:24:15.872Z,612.00
2023-12-16T10:25:15.888Z,615.00
2023-12-16T10:26:15.891Z,617.00
2023-12-16T10:27:15.844Z,617.00
2023-12-16T10:28:15.893Z,619.00
2023-12-16T10:29:15.878Z,618.00
2023-12-16T10:30:15.877Z,618.00
2023-12-16T10:31:16.015Z,615.00
2023-12-16T10:32:15.915Z,612.00
2023-12-16T10:33:15.927Z,612.00
2023-12-16T10:34:15.910Z,613.00
2023-12-16T10:35:15.887Z,615.00
2023-12-16T10:36:15.915Z,615.00
2023-12-16T10:37:15.916Z,617.00
2023-12-16T10:38:15.882Z,620.00
2023-12-16T10:39:15.888Z,619.00
2023-12-16T10:40:16.127Z,619.00
2023-12-16T10:41:15.850Z,617.00
2023-12-16T10:42:15.856Z,617.00
2023-12-16T10:43:15.868Z,620.00
2023-12-16T10:44:15.862Z,623.00
2023-12-16T10:45:15.856Z,624.00
2023-12-16T10:46:15.940Z,622.00
2023-12-16T10:47:15.895Z,623.00
2023-12-16T10:48:15.960Z,623.00
2023-12-16T10:49:15.986Z,624.00
2023-12-16T10:50:15.912Z,624.00
2023-12-16T10:51:15.921Z,626.00
2023-12-16T10:52:15.985Z,624.00
2023-12-16T10:53:15.988Z,623.00
2023-12-16T10:54:15.974Z,620.00
2023-12-16T10:55:16.146Z,622.00
2023-12-16T10:56:16.076Z,621.00
2023-12-16T10:57:16.037Z,621.00
2023-12-16T10:58:16.078Z,623.00
2023-12-16T10:59:16.095Z,621.00
2023-12-16T11:00:16.078Z,623.00
2023-12-16T11:01:16.200Z,621.00
2023-12-16T11:02:16.106Z,618.00
2023-12-16T11:03:16.189Z,619.00
2023-12-16T11:04:16.217Z,621.00
2023-12-16T11:05:16.240Z,622.00
2023-12-16T11:06:16.216Z,621.00
2023-12-16T11:07:16.259Z,620.00
2023-12-16T11:08:16.220Z,618.00
2023-12-16T11:09:16.253Z,618.00
2023-12-16T11:10:16.249Z,619.00
2023-12-16T11:11:16.238Z,618.00
2023-12-16T11:12:16.285Z,617.00
2023-12-16T11:13:16.271Z,616.00
2023-12-16T11:14:16.285Z,618.00
2023-12-16T11:15:16.277Z,620.00
2023-12-16T11:16:16.337Z,621.00
2023-12-16T11:17:16.286Z,621.00
2023-12-16T11:18:16.386Z,622.00
2023-12-16T11:19:16.398Z,620.00
2023-12-16T11:20:16.354Z,617.00
2023-12-16T11:21:16.356Z,617.00
2023-12-16T11:22:16.446Z,615.00
2023-12-16T11:23:16.356Z,616.00
2023-12-16T11:24:16.381Z,615.00
2023-12-16T11:25:16.437Z,616.00
2023-12-16T11:26:16.463Z,619.00
2023-12-16T11:27:16.392Z,616.00
2023-12-16T11:28:16.431Z,618.00
2023-12-16T11:29:16.383Z,616.00
2023-12-16T11:30:16.475Z,614.00
2023-12-16T11:31:16.556Z,614.00
2023-12-16T11:32:16.477Z,613.00
2023-12-16T11:33:16.627Z,614.00
2023-12-16T11:34:16.630Z,614.00
2023-12-16T11:35:16.569Z,612.00
2023-12-16T11:36:16.585Z,611.00
2023-12-16T11:37:16.729Z,612.00
2023-12-16T11:38:16.683Z,611.00
2023-12-16T11:39:16.727Z,611.00
2023-12-16T11:40:16.771Z,613.00
2023-12-16T11:41:16.791Z,615.00
2023-12-16T11:42:16.846Z,616.00
2023-12-16T11:43:16.974Z,617.00
2023-12-16T11:44:16.976Z,617.00
2023-12-16T11:45:17.030Z,618.00
2023-12-16T11:46:17.114Z,616.00
2023-12-16T11:47:17.148Z,616.00
2023-12-16T11:48:17.378Z,616.00
2023-12-16T11:49:17.435Z,618.00
2023-12-16T11:50:17.352Z,620.00
2023-12-16T11:51:17.409Z,620.00
2023-12-16T11:52:17.501Z,620.00
2023-12-16T11:53:17.576Z,622.00
2023-12-16T11:54:17.600Z,622.00
2023-12-16T11:55:17.668Z,621.00
2023-12-16T11:56:17.697Z,621.00
2023-12-16T11:57:17.763Z,623.00
2023-12-16T11:58:17.817Z,620.00
2023-12-16T11:59:17.884Z,621.00
2023-12-16T12:00:17.920Z,618.00
2023-12-16T12:01:18.084Z,614.00
2023-12-16T12:02:17.984Z,615.00
2023-12-16T12:03:18.046Z,613.00
2023-12-16T12:04:18.142Z,610.00
2023-12-16T12:05:18.381Z,608.00
2023-12-16T12:06:18.188Z,603.00
2023-12-16T12:07:18.278Z,595.00
2023-12-16T12:08:18.265Z,590.00
2023-12-16T12:09:18.269Z,584.00
2023-12-16T12:10:18.389Z,579.00
2023-12-16T12:11:18.353Z,574.00
2023-12-16T12:12:18.431Z,572.00
2023-12-16T12:13:18.449Z,569.00
2023-12-16T12:14:18.514Z,569.00
2023-12-16T12:15:20.653Z,571.00
2023-12-16T12:16:18.596Z,575.00
2023-12-16T12:17:18.614Z,577.00
2023-12-16T12:18:18.704Z,578.00
2023-12-16T12:19:18.780Z,576.00
2023-12-16T12:20:18.709Z,574.00
2023-12-16T12:21:18.745Z,573.00
2023-12-16T12:22:18.742Z,573.00
2023-12-16T12:23:18.793Z,573.00
2023-12-16T12:24:18.818Z,574.00
2023-12-16T12:26:18.870Z,577.00
2023-12-16T12:27:18.895Z,579.00
2023-12-16T12:28:18.891Z,579.00
2023-12-16T12:29:18.921Z,578.00
2023-12-16T12:30:19.138Z,576.00
2023-12-16T12:31:18.989Z,578.00
2023-12-16T12:32:19.091Z,580.00
2023-12-16T12:33:19.091Z,582.00
2023-12-16T12:34:19.144Z,584.00
2023-12-16T12:35:19.155Z,584.00
2023-12-16T12:36:19.065Z,584.00
2023-12-16T12:37:19.064Z,584.00
2023-12-16T12:38:19.068Z,583.00
2023-12-16T12:39:19.069Z,584.00
2023-12-16T12:40:19.191Z,584.00
2023-12-16T12:41:19.070Z,581.00
2023-12-16T12:42:19.087Z,581.00
2023-12-16T12:43:19.103Z,581.00
2023-12-16T12:44:19.090Z,580.00
2023-12-16T12:45:19.172Z,581.00
2023-12-16T12:46:19.199Z,582.00
2023-12-16T12:47:19.187Z,586.00
2023-12-16T12:48:19.371Z,584.00
2023-12-16T12:49:19.436Z,584.00
2023-12-16T12:50:19.299Z,584.00
2023-12-16T12:51:19.362Z,584.00
2023-12-16T12:52:19.429Z,584.00
2023-12-16T12:53:23.524Z,586.00
2023-12-16T12:54:20.461Z,585.00
2023-12-16T12:55:19.446Z,584.00
2023-12-16T12:56:19.429Z,587.00
2023-12-16T12:57:19.444Z,588.00
2023-12-16T12:58:23.434Z,591.00
2023-12-16T12:59:58.166Z,591.00
2023-12-16T13:00:20.450Z,589.00
2023-12-16T13:01:19.563Z,591.00
2023-12-16T13:02:19.473Z,591.00
2023-12-16T13:03:19.580Z,591.00
2023-12-16T13:04:19.528Z,592.00
2023-12-16T13:05:19.522Z,594.00
2023-12-16T13:06:19.557Z,595.00
2023-12-16T13:07:19.447Z,594.00
2023-12-16T13:08:19.494Z,593.00
2023-12-16T13:09:19.541Z,591.00
2023-12-16T13:10:19.482Z,590.00
2023-12-16T13:11:19.470Z,590.00
2023-12-16T13:12:19.482Z,589.00
2023-12-16T13:13:19.464Z,589.00
2023-12-16T13:14:26.723Z,592.00
2023-12-16T13:15:20.529Z,591.00
2023-12-16T13:16:19.518Z,589.00
2023-12-16T13:17:19.542Z,587.00
2023-12-16T13:18:19.546Z,587.00
2023-12-16T13:19:19.645Z,588.00
2023-12-16T13:20:19.495Z,591.00
2023-12-16T13:21:19.596Z,591.00
2023-12-16T13:22:19.491Z,590.00
2023-12-16T13:23:19.512Z,591.00
2023-12-16T13:24:19.512Z,592.00
2023-12-16T13:25:19.512Z,595.00
2023-12-16T13:26:19.527Z,595.00
2023-12-16T13:27:19.542Z,594.00
2023-12-16T13:28:19.732Z,593.00
2023-12-16T13:29:19.606Z,593.00
2023-12-16T13:30:19.774Z,592.00
2023-12-16T13:31:19.698Z,591.00
2023-12-16T13:32:19.766Z,591.00
2023-12-16T13:33:19.788Z,587.00
2023-12-16T13:34:19.805Z,587.00
2023-12-16T13:35:19.735Z,588.00
2023-12-16T13:36:33.829Z,590.00
2023-12-16T13:37:20.790Z,592.00
2023-12-16T13:38:19.763Z,590.00
2023-12-16T13:39:19.787Z,590.00
2023-12-16T13:40:19.776Z,589.00
2023-12-16T13:41:19.769Z,588.00
2023-12-16T13:42:19.823Z,589.00
2023-12-16T13:43:19.772Z,591.00
2023-12-16T13:44:19.774Z,592.00
2023-12-16T13:45:19.812Z,590.00
2023-12-16T13:46:19.801Z,588.00
2023-12-16T13:47:19.771Z,589.00
2023-12-16T13:48:20.007Z,590.00
2023-12-16T13:49:19.909Z,589.00
2023-12-16T13:50:19.796Z,586.00
2023-12-16T13:51:19.842Z,587.00
2023-12-16T13:52:19.881Z,585.00
2023-12-16T13:53:19.791Z,587.00
2023-12-16T13:54:19.992Z,591.00
2023-12-16T13:55:19.792Z,591.00
2023-12-16T13:56:19.792Z,594.00
2023-12-16T13:57:19.778Z,595.00
2023-12-16T13:58:19.804Z,598.00
2023-12-16T13:59:19.821Z,597.00
2023-12-16T14:00:19.848Z,597.00
